Time;durP1;ratioP1;P1;durP2;ratioP2;P2;SDS_P1;SDS_P2;PMS_P1;PMS_P2;Temp;Humidity;BMP_temperature;BMP_pressure;BME280_temperature;BME280_humidity;BME280_pressure;Samples;Min_cycle;Max_cycle;Signal;HPM_P1;HPM_P2
2022/08/18 00:00:16;;;;;;;2.15;1.00;;;;;;;;;;20988410;28;20588;-82
2022/08/18 00:10:18;;;;;;;1.67;1.00;;;;;;;;;;20987859;28;20294;-81
2022/08/18 00:20:22;;;;;;;2.38;1.10;;;24.10;99.90;;;;;;21004751;28;20229;-81
2022/08/18 00:30:24;;;;;;;2.10;1.25;;;;;;;;;;21002860;28;20692;-82
2022/08/18 00:40:35;;;;;;;1.75;1.15;;;23.90;99.90;;;;;;20985026;28;20228;-81
2022/08/18 00:50:37;;;;;;;2.75;1.45;;;;;;;;;;21055854;28;20272;-79
2022/08/18 01:00:39;;;;;;;1.52;1.10;;;;;;;;;;21067409;28;20224;-80
2022/08/18 01:10:42;;;;;;;2.60;1.20;;;22.70;99.90;;;;;;21066298;28;20703;-81
2022/08/18 01:21:49;;;;;;;2.38;1.50;;;;;;;;;;21082591;28;20227;-82
2022/08/18 01:31:42;;;;;;;2.08;1.55;;;23.70;99.90;;;;;;21080960;28;20257;-83
2022/08/18 01:41:47;;;;;;;1.60;1.13;;;;;;;;;;21035271;28;20217;-82
2022/08/18 01:51:48;;;;;;;2.03;1.00;;;;;;;;;;21081091;28;20206;-83
2022/08/18 02:01:51;;;;;;;2.13;1.10;;;;;;;;;;21006902;28;20296;-83
2022/08/18 02:11:52;;;;;;;1.17;0.95;;;;;;;;;;20988704;28;20233;-81
2022/08/18 02:21:54;;;;;;;1.90;1.23;;;;;;;;;;20961671;28;20223;-80
2022/08/18 02:31:56;;;;;;;2.55;1.20;;;;;;;;;;20994230;28;20914;-83
2022/08/18 02:41:57;;;;;;;2.13;1.20;;;;;;;;;;20994222;28;20252;-81
2022/08/18 02:51:59;;;;;;;1.60;0.98;;;;;;;;;;20959121;28;20259;-82
2022/08/18 03:02:01;;;;;;;1.58;1.10;;;;;;;;;;20975079;28;20625;-79
2022/08/18 03:12:03;;;;;;;4.50;1.48;;;;;;;;;;20956656;28;20777;-82
2022/08/18 03:22:06;;;;;;;1.70;1.23;;;;;;;;;;20973925;28;20594;-82
2022/08/18 03:32:07;;;;;;;2.10;1.10;;;;;;;;;;20975102;28;20213;-82
2022/08/18 03:42:12;;;;;;;2.40;1.30;;;;;;;;;;21056704;28;20610;-81
2022/08/18 03:52:14;;;;;;;3.05;1.35;;;;;;;;;;21056375;28;20224;-83
2022/08/18 04:02:17;;;;;;;2.10;1.35;;;;;;;;;;21056326;28;20578;-82
2022/08/18 04:12:18;;;;;;;2.03;1.30;;;;;;;;;;21055400;28;20279;-81
2022/08/18 04:22:21;;;;;;;2.08;1.40;;;;;;;;;;21073307;28;20281;-79
2022/08/18 04:32:23;;;;;;;1.50;1.27;;;22.60;99.90;;;;;;21016643;28;20237;-79
2022/08/18 04:42:25;;;;;;;3.13;1.85;;;22.70;99.90;;;;;;20920470;28;20683;-78
2022/08/18 05:02:47;;;;;;;3.08;2.00;;;;;;;;;;20903752;28;20287;-78
2022/08/18 05:12:49;;;;;;;2.58;1.80;;;;;;;;;;21004537;28;20781;-78
2022/08/18 05:22:51;;;;;;;1.60;1.30;;;;;;;;;;21048866;28;20221;-79
2022/08/18 05:32:54;;;;;;;3.05;2.35;;;;;;;;;;20970833;28;20281;-79
2022/08/18 05:42:58;;;;;;;2.97;2.20;;;;;;;;;;20994628;28;20296;-78
2022/08/18 05:53:12;;;;;;;2.83;2.20;;;;;;;;;;21035087;28;20273;-79
2022/08/18 06:03:41;;;;;;;5.22;2.63;;;22.40;99.90;;;;;;20996092;28;20216;-79
2022/08/18 06:13:43;;;;;;;2.63;2.10;;;;;;;;;;20990312;28;20283;-78
2022/08/18 06:24:17;;;;;;;3.90;2.28;;;22.10;99.90;;;;;;20980469;28;20290;-78
2022/08/18 06:34:39;;;;;;;3.63;2.20;;;;;;;;;;20986497;28;20225;-77
2022/08/18 06:44:44;;;;;;;3.22;2.50;;;;;;;;;;20993187;28;20232;-78
2022/08/18 06:54:46;;;;;;;3.60;2.70;;;;;;;;;;20998732;28;20691;-78
2022/08/18 07:05:06;;;;;;;5.75;3.10;;;;;;;;;;20942462;28;20273;-79
2022/08/18 07:15:11;;;;;;;5.47;3.17;;;;;;;;;;20889789;28;20275;-79
2022/08/18 07:25:40;;;;;;;5.03;3.75;;;22.70;99.90;;;;;;20905890;28;20234;-80
2022/08/18 07:35:48;;;;;;;4.32;3.22;;;;;;;;;;20913584;28;20222;-80
2022/08/18 07:45:49;;;;;;;4.38;3.25;;;;;;;;;;20989273;28;20236;-79
2022/08/18 07:55:55;;;;;;;4.80;3.35;;;;;;;;;;21014556;28;20201;-79
2022/08/18 08:06:03;;;;;;;5.07;3.85;;;;;;;;;;21082591;28;20228;-80
2022/08/18 08:16:16;;;;;;;5.75;4.40;;;;;;;;;;21084456;28;20273;-79
2022/08/18 08:26:17;;;;;;;6.07;3.47;;;;;;;;;;21080773;28;20794;-80
2022/08/18 08:36:22;;;;;;;5.38;4.07;;;;;;;;;;21050522;28;20284;-79
2022/08/18 08:46:31;;;;;;;4.70;3.85;;;22.90;99.90;;;;;;21058489;28;20234;-79
2022/08/18 08:56:39;;;;;;;5.65;3.45;;;22.90;99.90;;;;;;20986312;28;20201;-79
2022/08/18 09:06:41;;;;;;;3.95;3.00;;;;;;;;;;20954739;28;20302;-80
2022/08/18 09:16:49;;;;;;;4.75;4.05;;;;;;;;;;20955342;28;1105555;-80
2022/08/18 09:26:53;;;;;;;5.22;4.15;;;;;;;;;;20974406;28;20221;-81
2022/08/18 09:37:00;;;;;;;6.43;5.15;;;;;;;;;;20913328;28;20215;-81
2022/08/18 09:47:02;;;;;;;7.00;5.78;;;;;;;;;;20907963;28;20259;-81
2022/08/18 09:57:05;;;;;;;7.30;5.88;;;;;;;;;;20903899;28;20217;-79
2022/08/18 10:07:19;;;;;;;6.55;5.40;;;;;;;;;;20884220;28;20675;-80
2022/08/18 10:17:39;;;;;;;6.55;5.47;;;;;;;;;;20899370;28;20279;-79
2022/08/18 10:27:43;;;;;;;6.25;4.68;;;;;;;;;;20898400;28;20231;-81
2022/08/18 10:37:47;;;;;;;7.13;5.38;;;22.60;99.90;;;;;;20958476;28;20209;-81
2022/08/18 10:48:04;;;;;;;6.90;5.60;;;;;;;;;;20923108;28;20218;-77
2022/08/18 10:58:09;;;;;;;6.85;5.63;;;;;;;;;;20970998;28;20201;-78
2022/08/18 11:08:17;;;;;;;5.70;4.70;;;;;;;;;;21017217;28;20279;-78
2022/08/18 11:18:29;;;;;;;6.45;5.32;;;;;;;;;;20989149;28;20662;-77
2022/08/18 11:28:31;;;;;;;6.75;5.25;;;;;;;;;;20969539;28;20295;-77
2022/08/18 11:38:33;;;;;;;7.10;5.05;;;;;;;;;;20916004;28;20195;-79
2022/08/18 11:48:38;;;;;;;8.07;4.97;;;;;;;;;;20983571;28;20242;-78
2022/08/18 11:58:48;;;;;;;6.72;4.78;;;;;;;;;;20948663;28;20576;-77
2022/08/18 12:08:53;;;;;;;5.53;4.53;;;;;;;;;;20955369;28;20228;-78
2022/08/18 12:18:55;;;;;;;4.70;3.20;;;;;;;;;;20980030;28;20275;-78
2022/08/18 12:28:57;;;;;;;3.45;3.05;;;;;;;;;;20928823;28;20244;-78
2022/08/18 12:38:58;;;;;;;3.17;2.72;;;;;;;;;;20875997;28;20558;-78
2022/08/18 12:49:02;;;;;;;4.05;2.72;;;24.40;99.90;;;;;;20948666;28;20309;-80
2022/08/18 12:59:05;;;;;;;3.15;2.65;;;24.30;99.90;;;;;;21025399;28;20212;-77
2022/08/18 13:09:07;;;;;;;4.30;2.80;;;;;;;;;;20971040;28;20814;-78
2022/08/18 13:19:11;;;;;;;3.97;2.42;;;;;;;;;;20961360;28;20583;-79
2022/08/18 13:29:16;;;;;;;4.55;3.03;;;;;;;;;;20985531;28;20226;-78
2022/08/18 13:39:20;;;;;;;4.20;3.08;;;;;;;;;;20999683;28;20217;-79
2022/08/18 13:49:22;;;;;;;4.15;3.38;;;;;;;;;;20912606;28;20312;-77
2022/08/18 13:59:26;;;;;;;5.43;4.32;;;;;;;;;;20913304;28;20697;-78
2022/08/18 14:09:28;;;;;;;5.65;4.53;;;25.60;99.90;;;;;;20924674;28;20294;-77
2022/08/18 14:29:50;;;;;;;3.90;3.50;;;;;;;;;;20900725;28;20289;-77
2022/08/18 14:39:52;;;;;;;5.00;3.80;;;;;;;;;;20990880;28;20251;-78
2022/08/18 14:49:55;;;;;;;3.63;2.83;;;26.00;99.90;;;;;;21009080;28;20231;-77
2022/08/18 14:59:57;;;;;;;4.10;2.85;;;;;;;;;;20984303;28;20212;-77
2022/08/18 15:09:59;;;;;;;3.30;2.75;;;;;;;;;;20993327;28;20227;-78
2022/08/18 15:20:01;;;;;;;3.10;2.22;;;;;;;;;;21001435;28;20220;-78
2022/08/18 15:30:13;;;;;;;3.60;2.92;;;;;;;;;;20984807;28;20704;-77
2022/08/18 15:40:16;;;;;;;4.10;3.10;;;;;;;;;;20970525;28;20580;-77
2022/08/18 15:50:18;;;;;;;5.53;2.83;;;;;;;;;;20991302;28;20231;-77
2022/08/18 16:00:20;;;;;;;3.08;2.78;;;25.80;99.90;;;;;;20984005;28;20233;-76
2022/08/18 16:10:25;;;;;;;3.65;2.72;;;25.70;99.90;;;;;;20984660;28;20732;-76
2022/08/18 16:20:28;;;;;;;3.55;2.83;;;;;;;;;;20982196;28;20224;-76
2022/08/18 16:30:32;;;;;;;3.15;2.60;;;;;;;;;;20994142;28;20309;-78
2022/08/18 16:40:34;;;;;;;4.30;2.42;;;;;;;;;;20925961;28;20225;-76
2022/08/18 16:50:37;;;;;;;2.95;2.40;;;;;;;;;;20927626;28;20221;-81
2022/08/18 17:10:59;;;;;;;4.68;2.42;;;;;;;;;;20995729;28;20290;-78
2022/08/18 17:21:02;;;;;;;3.13;2.40;;;;;;;;;;20996778;28;20220;-78
2022/08/18 17:31:04;;;;;;;2.90;2.10;;;;;;;;;;20977756;28;20255;-77
2022/08/18 17:41:06;;;;;;;5.32;2.38;;;;;;;;;;20992826;28;20215;-81
2022/08/18 18:01:34;;;;;;;3.70;2.60;;;;;;;;;;20993876;28;20779;-79
2022/08/18 18:11:41;;;;;;;3.17;2.40;;;;;;;;;;20928169;28;20949;-79
2022/08/18 18:21:43;;;;;;;3.28;2.72;;;;;;;;;;20956002;28;20229;-79
2022/08/18 18:31:59;;;;;;;5.93;3.90;;;25.00;99.90;;;;;;20956317;28;20583;-78
2022/08/18 18:42:29;;;;;;;5.38;3.88;;;;;;;;;;20996943;28;20227;-81
2022/08/18 18:52:41;;;;;;;5.28;3.72;;;;;;;;;;21029543;28;20219;-80
2022/08/18 19:02:48;;;;;;;4.38;3.20;;;;;;;;;;21048530;28;20218;-79
2022/08/18 19:12:54;;;;;;;6.93;3.83;;;24.60;99.90;;;;;;21068182;28;20227;-79
2022/08/18 19:23:00;;;;;;;5.22;3.67;;;;;;;;;;21064373;28;20249;-78
2022/08/18 19:33:04;;;;;;;6.13;3.60;;;24.60;99.90;;;;;;20983984;28;20297;-80
2022/08/18 19:43:11;;;;;;;4.65;3.40;;;24.50;99.90;;;;;;21044059;28;20286;-78
2022/08/18 19:53:16;;;;;;;4.35;3.22;;;;;;;;;;20946611;28;20311;-80
2022/08/18 20:03:26;;;;;;;5.28;4.38;;;;;;;;;;20983072;28;20238;-80
2022/08/18 20:13:35;;;;;;;5.07;3.83;;;24.20;99.90;;;;;;20997768;28;20224;-79
2022/08/18 20:23:57;;;;;;;5.00;3.75;;;24.10;99.90;;;;;;21000436;28;20558;-79
2022/08/18 20:34:09;;;;;;;4.53;3.63;;;;;;;;;;20980835;28;20215;-83
2022/08/18 20:44:27;;;;;;;5.47;3.78;;;;;;;;;;20981990;28;20622;-81
2022/08/18 20:54:29;;;;;;;5.60;4.18;;;;;;;;;;20905107;28;20220;-83
2022/08/18 21:04:35;;;;;;;5.03;3.88;;;;;;;;;;20935071;28;20224;-84
2022/08/18 21:14:39;;;;;;;4.47;3.30;;;;;;;;;;21051858;28;20296;-80
2022/08/18 21:24:43;;;;;;;6.53;4.55;;;23.70;99.90;;;;;;21063098;28;20230;-80
2022/08/18 21:34:45;;;;;;;5.07;3.78;;;;;;;;;;21061906;28;20260;-80
2022/08/18 21:44:52;;;;;;;4.82;3.80;;;23.70;99.90;;;;;;21052469;28;20216;-79
2022/08/18 21:54:57;;;;;;;7.03;4.38;;;;;;;;;;21060210;28;20215;-81
2022/08/18 22:04:58;;;;;;;5.13;4.07;;;;;;;;;;20961722;28;20586;-79
2022/08/18 22:15:15;;;;;;;4.85;3.78;;;;;;;;;;20980538;28;20263;-79
2022/08/18 22:25:20;;;;;;;6.10;4.65;;;23.70;99.90;;;;;;21003176;28;20212;-82
2022/08/18 22:35:22;;;;;;;4.80;3.97;;;;;;;;;;20980004;28;20264;-81
2022/08/18 22:45:24;;;;;;;4.93;3.72;;;;;;;;;;20993353;28;20602;-81
2022/08/18 22:55:26;;;;;;;6.05;4.25;;;;;;;;;;20992096;28;20686;-79
2022/08/18 23:05:28;;;;;;;5.85;4.65;;;;;;;;;;20993248;28;20209;-80
2022/08/18 23:15:46;;;;;;;5.47;4.70;;;;;;;;;;20993515;28;20281;-79
2022/08/18 23:25:49;;;;;;;4.75;3.80;;;;;;;;;;20990874;28;20231;-81
2022/08/18 23:35:51;;;;;;;6.55;4.68;;;;;;;;;;20971987;28;20220;-80
2022/08/18 23:45:53;;;;;;;6.60;4.55;;;;;;;;;;20989635;28;20265;-82
2022/08/18 23:55:54;;;;;;;5.68;4.35;;;;;;;;;;20972339;28;20222;-80
